MSC Divina — 3FFA5 — position and weather

sailwx.info

Track history (hours):
 
Tides and Currents Weather Stations Pressure Air Temp Water Temp Dewpoint Dewpoint Depression Visibility Wind Speed Wind Dir Waves Ship Positions

MSC Divina

Last reported at 2017-Aug-20 12:00 UTC. Time now 2017-Aug-20 15:37 UTC.
Position N 25°24' W 076°06'.

Length 333 m; draft 8.6 m.

Type: Passenger vessel. MMSI: 373178000.

Wind from 100 at 17 knots

Barometer 1031.9 mb
Air temperature 28.0 ° C
Visibility: greater than 5.4 NM
Dewpoint 23.9 ° C
Water temperature 24.0 ° C

Date/timePositionNaut miles runAvg speedWind from/ knotsBaromVisibWave heightAir tempDewpointWater temp
2017-Aug-20 12:00N 25°24' W 076°06'17818.5 100 / 171031.9 5.4 28.023.924.0
2017-Aug-20 02:20N 26°07' W 079°18'2118.6
2017-Aug-20 01:13N 25°58' W 079°39'419.0
2017-Aug-20 01:00N 25°56' W 079°43'919.0
2017-Aug-20 00:30N 25°52' W 079°52'918.6
2017-Aug-20 00:00N 25°48' W 080°01'6420.3
2017-Aug-20 00:00N 25°42' W 080°00'816.4 100 / 151027.6 5.4 29.024.928.0
2017-Aug-19 23:30N 25°46' W 080°08'3 5.6
2017-Aug-19 23:00N 25°47' W 080°11'0 0.0
2017-Aug-19 22:29N 25°47' W 080°11'0 0.0
2017-Aug-19 21:59N 25°47' W 080°11'0 0.0
2017-Aug-19 21:28N 25°47' W 080°11'0 0.0
2017-Aug-19 20:55N 25°47' W 080°11'0 0.0
2017-Aug-19 20:28N 25°47' W 080°11'0 0.0
2017-Aug-19 19:55N 25°47' W 080°11'0 0.0
2017-Aug-19 19:25N 25°47' W 080°11'0 0.0
2017-Aug-19 19:00N 25°47' W 080°11'0 0.0
2017-Aug-19 18:24N 25°47' W 080°11'0 0.0
2017-Aug-19 18:00N 25°47' W 080°11'0 0.0
2017-Aug-19 17:27N 25°47' W 080°11'0 0.0
2017-Aug-19 16:57N 25°47' W 080°11'0 0.0
2017-Aug-19 16:27N 25°47' W 080°11'0 0.0
2017-Aug-19 16:00N 25°47' W 080°11'0 0.0
2017-Aug-19 15:30N 25°47' W 080°11'0 0.0
2017-Aug-19 15:00N 25°47' W 080°11'0 0.0
2017-Aug-19 14:00N 25°47' W 080°11'0 0.0
2017-Aug-19 13:30N 25°47' W 080°11'0 0.0
2017-Aug-19 13:00N 25°47' W 080°11'0 0.0
2017-Aug-19 12:30N 25°47' W 080°11'0 0.0
2017-Aug-19 12:00N 25°47' W 080°11'0 0.0
2017-Aug-19 11:29N 25°47' W 080°11'0 0.0
2017-Aug-19 10:59N 25°47' W 080°11'0 0.0
2017-Aug-19 10:29N 25°47' W 080°11'0 0.0
2017-Aug-19 10:00N 25°47' W 080°11'0 0.8
2017-Aug-19 09:31N 25°47' W 080°11'4 7.1
2017-Aug-19 09:01N 25°46' W 080°07'612.9
2017-Aug-19 08:30N 25°47' W 080°00'4 7.9
2017-Aug-19 08:00N 25°49' W 079°57'816.4
2017-Aug-19 07:30N 25°53' W 079°48'816.1
2017-Aug-19 07:00N 25°56' W 079°40'816.4
2017-Aug-19 06:30N 26°00' W 079°32'816.1
2017-Aug-19 06:00N 26°04' W 079°24'123 6.8
2017-Aug-18 12:00N 25°06' W 077°24'11513.6 070 / 141029.7 5.4 28.025.328.0
2017-Aug-18 03:31N 25°52' W 079°21'119.4
2017-Aug-18 03:27N 25°51' W 079°21'919.6
2017-Aug-18 03:00N 25°42' W 079°24'1019.7
2017-Aug-18 02:31N 25°33' W 079°28'16118.9
2017-Aug-17 18:00N 23°42' W 081°36'11619.3 100 / 141031.6 5.4 29.026.328.0
2017-Aug-17 12:00N 23°06' W 083°36'22518.7 120 / 131031.1 5.4 29.024.929.0
2017-Aug-17 00:00N 20°42' W 086°42'1242.0 120 / 111028.1 5.4 31.027.128.0
2017-Aug-16 23:42N 20°38' W 086°55'420.0
2017-Aug-16 23:30N 20°35' W 086°57'4 8.0
2017-Aug-16 22:58N 20°31' W 086°57'0 0.0
2017-Aug-16 22:28N 20°31' W 086°57'0 0.0
2017-Aug-16 21:58N 20°31' W 086°57'0 0.0
2017-Aug-16 21:28N 20°31' W 086°57'0 0.0
2017-Aug-16 20:58N 20°31' W 086°57'0 0.0
2017-Aug-16 20:28N 20°31' W 086°57'0 0.0
2017-Aug-16 19:58N 20°31' W 086°57'0 0.0
2017-Aug-16 19:28N 20°31' W 086°57'0 0.0
2017-Aug-16 18:58N 20°31' W 086°57'0 0.0
2017-Aug-16 18:28N 20°31' W 086°57'0 0.0
2017-Aug-16 17:58N 20°31' W 086°57'0 0.0
2017-Aug-16 17:28N 20°31' W 086°57'0 0.0
2017-Aug-16 16:58N 20°31' W 086°57'0 0.0
2017-Aug-16 16:28N 20°31' W 086°57'0 0.0
2017-Aug-16 16:00N 20°31' W 086°57'0 0.0
2017-Aug-16 15:30N 20°31' W 086°57'0 0.0
2017-Aug-16 15:00N 20°31' W 086°57'1 1.1
2017-Aug-16 14:30N 20°31' W 086°58'712.8
2017-Aug-16 13:58N 20°37' W 086°54'28020.1
2017-Aug-16 00:00N 19°24' W 082°06'26711.1 050 / 161027.6 5.4 30.026.026.0
2017-Aug-15 00:00N 18°30' W 077°30'58 4.8 080 / 161024.6 5.4 31.027.128.0
2017-Aug-14 12:00N 18°42' W 076°30'18010.0 080 / 151028.6 5.4 28.025.326.0
2017-Aug-13 18:00N 21°42' W 076°42'27516.8 040 / 91029.6 5.4 29.024.928.0
2017-Aug-13 01:39N 25°23' W 079°40'215.1
2017-Aug-13 01:30N 25°25' W 079°41'815.7
2017-Aug-13 01:00N 25°31' W 079°47'815.4
2017-Aug-13 00:30N 25°36' W 079°53'815.4
2017-Aug-13 00:00N 25°41' W 079°59'714.3
2017-Aug-12 23:30N 25°46' W 080°05'5 9.4
2017-Aug-12 23:00N 25°47' W 080°11'0 0.1
2017-Aug-12 22:29N 25°47' W 080°11'0 0.0
2017-Aug-12 21:59N 25°47' W 080°11'0 0.0
2017-Aug-12 21:29N 25°47' W 080°11'0 0.0
2017-Aug-12 20:59N 25°47' W 080°11'0 0.0
2017-Aug-12 20:29N 25°47' W 080°11'0 0.0
2017-Aug-12 19:59N 25°47' W 080°11'0 0.0
2017-Aug-12 19:29N 25°47' W 080°11'0 0.0
2017-Aug-12 18:59N 25°47' W 080°11'0 0.0
2017-Aug-12 18:29N 25°47' W 080°11'0 0.0
2017-Aug-12 17:59N 25°47' W 080°11'0 0.0
2017-Aug-12 17:26N 25°47' W 080°11'0 0.0
2017-Aug-12 16:59N 25°47' W 080°11'0 0.0
2017-Aug-12 16:29N 25°47' W 080°11'0 0.0
2017-Aug-12 15:59N 25°47' W 080°11'0 0.0
2017-Aug-12 15:29N 25°47' W 080°11'0 0.0
2017-Aug-12 14:59N 25°47' W 080°11'0 0.0
2017-Aug-12 14:26N 25°47' W 080°11'0 0.0
2017-Aug-12 13:59N 25°47' W 080°11'0 0.0
2017-Aug-12 13:26N 25°47' W 080°11'0 0.0
2017-Aug-12 12:56N 25°47' W 080°11'0 0.0
2017-Aug-12 12:29N 25°47' W 080°11'0 0.0
2017-Aug-12 11:59N 25°47' W 080°11'0 0.0
2017-Aug-12 11:29N 25°47' W 080°11'0 0.0
2017-Aug-12 10:56N 25°47' W 080°11'0 0.0
2017-Aug-12 10:29N 25°47' W 080°11'0 0.0
2017-Aug-12 10:00N 25°47' W 080°11'0 0.2
2017-Aug-12 09:30N 25°47' W 080°11'2 4.7
2017-Aug-12 09:00N 25°46' W 080°08'4 7.4
2017-Aug-12 08:30N 25°46' W 080°04'4 7.9
2017-Aug-12 08:00N 25°47' W 079°60'612.5
2017-Aug-12 07:30N 25°50' W 079°54'612.6
2017-Aug-12 07:00N 25°53' W 079°48'712.8
2017-Aug-12 06:30N 25°56' W 079°41'613.1
2017-Aug-12 06:00N 25°59' W 079°35'713.3
2017-Aug-12 05:30N 26°02' W 079°28'46012.9
2017-Aug-10 18:00N 22°42' W 071°54'12320.4 080 / 201028.6 5.4 29.024.927.0
2017-Aug-10 12:00N 21°24' W 070°12'   080 / 221032.6 5.4 29.024.928.0
Track history (hours):
 
Tides and Currents Weather Stations Pressure Air Temp Water Temp Dewpoint Dewpoint Depression Visibility Wind Speed Wind Dir Waves Ship Positions

MSC Divina

Last reported at 2017-Aug-20 12:00 UTC. Time now 2017-Aug-20 15:37 UTC.
Position N 25°24' W 076°06'.

Length 333 m; draft 8.6 m.

Type: Passenger vessel. MMSI: 373178000.

Wind from 100 at 17 knots

Barometer 1031.9 mb
Air temperature 28.0 ° C
Visibility: greater than 5.4 NM
Dewpoint 23.9 ° C
Water temperature 24.0 ° C

Date/timePositionNaut miles runAvg speedWind from/ knotsBaromVisibWave heightAir tempDewpointWater temp
2017-Aug-20 12:00N 25°24' W 076°06'17818.5 100 / 171031.9 5.4 28.023.924.0
2017-Aug-20 02:20N 26°07' W 079°18'2118.6
2017-Aug-20 01:13N 25°58' W 079°39'419.0
2017-Aug-20 01:00N 25°56' W 079°43'919.0
2017-Aug-20 00:30N 25°52' W 079°52'918.6
2017-Aug-20 00:00N 25°48' W 080°01'6420.3
2017-Aug-20 00:00N 25°42' W 080°00'816.4 100 / 151027.6 5.4 29.024.928.0
2017-Aug-19 23:30N 25°46' W 080°08'3 5.6
2017-Aug-19 23:00N 25°47' W 080°11'0 0.0
2017-Aug-19 22:29N 25°47' W 080°11'0 0.0
2017-Aug-19 21:59N 25°47' W 080°11'0 0.0
2017-Aug-19 21:28N 25°47' W 080°11'0 0.0
2017-Aug-19 20:55N 25°47' W 080°11'0 0.0
2017-Aug-19 20:28N 25°47' W 080°11'0 0.0
2017-Aug-19 19:55N 25°47' W 080°11'0 0.0
2017-Aug-19 19:25N 25°47' W 080°11'0 0.0
2017-Aug-19 19:00N 25°47' W 080°11'0 0.0
2017-Aug-19 18:24N 25°47' W 080°11'0 0.0
2017-Aug-19 18:00N 25°47' W 080°11'0 0.0
2017-Aug-19 17:27N 25°47' W 080°11'0 0.0
2017-Aug-19 16:57N 25°47' W 080°11'0 0.0
2017-Aug-19 16:27N 25°47' W 080°11'0 0.0
2017-Aug-19 16:00N 25°47' W 080°11'0 0.0
2017-Aug-19 15:30N 25°47' W 080°11'0 0.0
2017-Aug-19 15:00N 25°47' W 080°11'0 0.0
2017-Aug-19 14:00N 25°47' W 080°11'0 0.0
2017-Aug-19 13:30N 25°47' W 080°11'0 0.0
2017-Aug-19 13:00N 25°47' W 080°11'0 0.0
2017-Aug-19 12:30N 25°47' W 080°11'0 0.0
2017-Aug-19 12:00N 25°47' W 080°11'0 0.0
2017-Aug-19 11:29N 25°47' W 080°11'0 0.0
2017-Aug-19 10:59N 25°47' W 080°11'0 0.0
2017-Aug-19 10:29N 25°47' W 080°11'0 0.0
2017-Aug-19 10:00N 25°47' W 080°11'0 0.8
2017-Aug-19 09:31N 25°47' W 080°11'4 7.1
2017-Aug-19 09:01N 25°46' W 080°07'612.9
2017-Aug-19 08:30N 25°47' W 080°00'4 7.9
2017-Aug-19 08:00N 25°49' W 079°57'816.4
2017-Aug-19 07:30N 25°53' W 079°48'816.1
2017-Aug-19 07:00N 25°56' W 079°40'816.4
2017-Aug-19 06:30N 26°00' W 079°32'816.1
2017-Aug-19 06:00N 26°04' W 079°24'123 6.8
2017-Aug-18 12:00N 25°06' W 077°24'11513.6 070 / 141029.7 5.4 28.025.328.0
2017-Aug-18 03:31N 25°52' W 079°21'119.4
2017-Aug-18 03:27N 25°51' W 079°21'919.6
2017-Aug-18 03:00N 25°42' W 079°24'1019.7
2017-Aug-18 02:31N 25°33' W 079°28'16118.9
2017-Aug-17 18:00N 23°42' W 081°36'11619.3 100 / 141031.6 5.4 29.026.328.0
2017-Aug-17 12:00N 23°06' W 083°36'22518.7 120 / 131031.1 5.4 29.024.929.0
2017-Aug-17 00:00N 20°42' W 086°42'1242.0 120 / 111028.1 5.4 31.027.128.0
2017-Aug-16 23:42N 20°38' W 086°55'420.0
2017-Aug-16 23:30N 20°35' W 086°57'4 8.0
2017-Aug-16 22:58N 20°31' W 086°57'0 0.0
2017-Aug-16 22:28N 20°31' W 086°57'0 0.0
2017-Aug-16 21:58N 20°31' W 086°57'0 0.0
2017-Aug-16 21:28N 20°31' W 086°57'0 0.0
2017-Aug-16 20:58N 20°31' W 086°57'0 0.0
2017-Aug-16 20:28N 20°31' W 086°57'0 0.0
2017-Aug-16 19:58N 20°31' W 086°57'0 0.0
2017-Aug-16 19:28N 20°31' W 086°57'0 0.0
2017-Aug-16 18:58N 20°31' W 086°57'0 0.0
2017-Aug-16 18:28N 20°31' W 086°57'0 0.0
2017-Aug-16 17:58N 20°31' W 086°57'0 0.0
2017-Aug-16 17:28N 20°31' W 086°57'0 0.0
2017-Aug-16 16:58N 20°31' W 086°57'0 0.0
2017-Aug-16 16:28N 20°31' W 086°57'0 0.0
2017-Aug-16 16:00N 20°31' W 086°57'0 0.0
2017-Aug-16 15:30N 20°31' W 086°57'0 0.0
2017-Aug-16 15:00N 20°31' W 086°57'1 1.1
2017-Aug-16 14:30N 20°31' W 086°58'712.8
2017-Aug-16 13:58N 20°37' W 086°54'28020.1
2017-Aug-16 00:00N 19°24' W 082°06'26711.1 050 / 161027.6 5.4 30.026.026.0
2017-Aug-15 00:00N 18°30' W 077°30'58 4.8 080 / 161024.6 5.4 31.027.128.0
2017-Aug-14 12:00N 18°42' W 076°30'18010.0 080 / 151028.6 5.4 28.025.326.0
2017-Aug-13 18:00N 21°42' W 076°42'27516.8 040 / 91029.6 5.4 29.024.928.0
2017-Aug-13 01:39N 25°23' W 079°40'215.1
2017-Aug-13 01:30N 25°25' W 079°41'815.7
2017-Aug-13 01:00N 25°31' W 079°47'815.4
2017-Aug-13 00:30N 25°36' W 079°53'815.4
2017-Aug-13 00:00N 25°41' W 079°59'714.3
2017-Aug-12 23:30N 25°46' W 080°05'5 9.4
2017-Aug-12 23:00N 25°47' W 080°11'0 0.1
2017-Aug-12 22:29N 25°47' W 080°11'0 0.0
2017-Aug-12 21:59N 25°47' W 080°11'0 0.0
2017-Aug-12 21:29N 25°47' W 080°11'0 0.0
2017-Aug-12 20:59N 25°47' W 080°11'0 0.0
2017-Aug-12 20:29N 25°47' W 080°11'0 0.0
2017-Aug-12 19:59N 25°47' W 080°11'0 0.0
2017-Aug-12 19:29N 25°47' W 080°11'0 0.0
2017-Aug-12 18:59N 25°47' W 080°11'0 0.0
2017-Aug-12 18:29N 25°47' W 080°11'0 0.0
2017-Aug-12 17:59N 25°47' W 080°11'0 0.0
2017-Aug-12 17:26N 25°47' W 080°11'0 0.0
2017-Aug-12 16:59N 25°47' W 080°11'0 0.0
2017-Aug-12 16:29N 25°47' W 080°11'0 0.0
2017-Aug-12 15:59N 25°47' W 080°11'0 0.0
2017-Aug-12 15:29N 25°47' W 080°11'0 0.0
2017-Aug-12 14:59N 25°47' W 080°11'0 0.0
2017-Aug-12 14:26N 25°47' W 080°11'0 0.0
2017-Aug-12 13:59N 25°47' W 080°11'0 0.0
2017-Aug-12 13:26N 25°47' W 080°11'0 0.0
2017-Aug-12 12:56N 25°47' W 080°11'0 0.0
2017-Aug-12 12:29N 25°47' W 080°11'0 0.0
2017-Aug-12 11:59N 25°47' W 080°11'0 0.0
2017-Aug-12 11:29N 25°47' W 080°11'0 0.0
2017-Aug-12 10:56N 25°47' W 080°11'0 0.0
2017-Aug-12 10:29N 25°47' W 080°11'0 0.0
2017-Aug-12 10:00N 25°47' W 080°11'0 0.2
2017-Aug-12 09:30N 25°47' W 080°11'2 4.7
2017-Aug-12 09:00N 25°46' W 080°08'4 7.4
2017-Aug-12 08:30N 25°46' W 080°04'4 7.9
2017-Aug-12 08:00N 25°47' W 079°60'612.5
2017-Aug-12 07:30N 25°50' W 079°54'612.6
2017-Aug-12 07:00N 25°53' W 079°48'712.8
2017-Aug-12 06:30N 25°56' W 079°41'613.1
2017-Aug-12 06:00N 25°59' W 079°35'713.3
2017-Aug-12 05:30N 26°02' W 079°28'46012.9
2017-Aug-10 18:00N 22°42' W 071°54'12320.4 080 / 201028.6 5.4 29.024.927.0
2017-Aug-10 12:00N 21°24' W 070°12'   080 / 221032.6 5.4 29.024.928.0

Dump ship's entire track history